Time;durP1;ratioP1;P1;durP2;ratioP2;P2;SDS_P1;SDS_P2;PMS_P1;PMS_P2;Temp;Humidity;BMP_temperature;BMP_pressure;BME280_temperature;BME280_humidity;BME280_pressure;Samples;Min_cycle;Max_cycle;Signal;HPM_P1;HPM_P2
2021/07/20 00:00:13;;;;;;;20.58;8.40;;;;;;;14.81;80.83;102383.34;5009867;28;20108;-75
2021/07/20 00:02:43;;;;;;;20.17;8.00;;;;;;;14.77;81.35;102378.13;5008387;28;20061;-75
2021/07/20 00:05:15;;;;;;;19.55;8.57;;;;;;;14.77;81.35;102391.56;5008656;28;20065;-74
2021/07/20 00:07:44;;;;;;;20.88;7.93;;;;;;;14.74;81.32;102382.66;5009331;28;20067;-74
2021/07/20 00:10:15;;;;;;;21.50;8.07;;;;;;;14.71;81.78;102388.09;5007851;28;20073;-75
2021/07/20 00:12:43;;;;;;;20.77;8.20;;;;;;;14.70;81.81;102390.81;5007471;28;20062;-74
2021/07/20 00:15:12;;;;;;;22.88;8.23;;;;;;;14.68;81.78;102384.63;5010969;28;20411;-74
2021/07/20 00:17:42;;;;;;;18.35;7.57;;;;;;;14.69;81.62;102387.25;5009020;28;20058;-75
2021/07/20 00:20:12;;;;;;;18.52;8.00;;;;;;;14.64;81.76;102383.81;5011287;28;20072;-75
2021/07/20 00:22:40;;;;;;;18.70;7.35;;;;;;;14.63;82.17;102383.84;5007290;28;20370;-74
2021/07/20 00:25:11;;;;;;;22.02;8.27;;;;;;;14.61;82.26;102382.97;5011847;28;20369;-76
2021/07/20 00:27:40;;;;;;;17.08;7.07;;;;;;;14.62;82.34;102390.13;5011269;28;20071;-75
2021/07/20 00:30:13;;;;;;;19.65;7.80;;;;;;;14.54;82.68;102385.78;5010441;28;20536;-76
2021/07/20 00:32:41;;;;;;;19.60;8.43;;;;;;;14.57;82.69;102385.72;5008077;28;20061;-75
2021/07/20 00:35:11;;;;;;;20.67;7.15;;;;;;;14.54;82.74;102383.09;5015144;28;20066;-75
2021/07/20 00:37:40;;;;;;;20.50;7.72;;;;;;;14.54;82.99;102380.41;5015176;28;20511;-75
2021/07/20 00:40:10;;;;;;;22.42;9.07;;;;;;;14.53;83.68;102383.13;5015952;28;20447;-75
2021/07/20 00:42:40;;;;;;;18.42;7.82;;;;;;;14.49;83.06;102390.41;5015311;28;20049;-75
2021/07/20 00:45:10;;;;;;;20.70;7.60;;;;;;;14.46;83.78;102386.91;5020469;28;20066;-75
2021/07/20 00:47:38;;;;;;;19.55;8.30;;;;;;;14.41;84.51;102388.81;5015063;28;20069;-75
2021/07/20 00:50:08;;;;;;;18.95;7.93;;;;;;;14.43;84.16;102385.16;5014030;28;20073;-76
2021/07/20 00:52:36;;;;;;;22.63;9.10;;;;;;;14.38;84.42;102385.25;5013016;28;20092;-76
2021/07/20 00:55:05;;;;;;;18.88;8.30;;;;;;;14.39;84.45;102387.03;5012333;28;20062;-75
2021/07/20 00:57:33;;;;;;;23.90;8.85;;;;;;;14.38;84.49;102382.56;5014678;28;20061;-75
2021/07/20 01:00:05;;;;;;;20.40;8.38;;;;;;;14.37;84.50;102380.81;5013366;28;20178;-75
2021/07/20 01:02:33;;;;;;;19.95;8.43;;;;;;;14.30;84.87;102383.66;5011055;28;20469;-75
2021/07/20 01:05:04;;;;;;;20.85;8.77;;;;;;;14.33;84.42;102380.91;5014972;28;20084;-75
2021/07/20 01:07:34;;;;;;;24.58;8.30;;;;;;;14.30;84.99;102380.97;5009172;28;20050;-75
2021/07/20 01:10:04;;;;;;;22.83;8.73;;;;;;;14.28;85.52;102380.16;5015690;28;20373;-75
2021/07/20 01:12:35;;;;;;;21.13;7.93;;;;;;;14.24;85.45;102384.72;5011319;28;20371;-75
2021/07/20 01:15:06;;;;;;;20.65;7.80;;;;;;;14.25;85.98;102380.22;5014121;28;20587;-75
2021/07/20 01:17:35;;;;;;;16.52;7.78;;;;;;;14.22;86.05;102381.19;5014431;28;20680;-75
2021/07/20 01:20:09;;;;;;;21.23;8.55;;;;;;;14.18;85.82;102377.69;5011089;28;21232;-75
2021/07/20 01:22:37;;;;;;;;;;;;;;;14.20;86.61;102374.97;5017392;28;20050;-76
2021/07/20 01:25:11;;;;;;;20.88;7.88;;;;;;;14.21;86.76;102379.41;5012571;28;19925;-75
2021/07/20 01:27:46;;;;;;;20.05;7.70;;;;;;;14.18;86.36;102383.06;5014180;28;20069;-75
2021/07/20 01:30:15;;;;;;;23.55;8.85;;;;;;;14.17;86.83;102380.41;5013892;28;20102;-75
2021/07/20 01:32:44;;;;;;;21.83;8.73;;;;;;;14.18;86.79;102380.38;5010975;28;21298;-75
2021/07/20 01:35:14;;;;;;;21.27;8.68;;;;;;;14.14;87.04;102373.28;5014959;28;20070;-75
2021/07/20 01:37:44;;;;;;;22.58;8.75;;;;;;;14.13;87.44;102376.91;5013443;28;20491;-74
2021/07/20 01:40:14;;;;;;;22.95;9.57;;;;;;;14.10;87.40;102374.28;5010508;28;20139;-76
2021/07/20 01:42:44;;;;;;;20.77;8.73;;;;;;;14.10;87.48;102382.34;5016318;28;20093;-70
2021/07/20 01:45:13;;;;;;;23.33;9.57;;;;;;;14.06;87.63;102372.56;5010980;28;20445;-69
2021/07/20 01:47:45;;;;;;;22.98;8.07;;;;;;;14.07;88.40;102374.34;5015472;28;20547;-69
2021/07/20 01:50:14;;;;;;;23.83;8.23;;;;;;;14.07;88.02;102370.78;5012540;28;20073;-69
2021/07/20 01:52:42;;;;;;;23.90;9.43;;;;;;;14.07;87.53;102371.66;5010973;28;20069;-69
2021/07/20 01:55:13;;;;;;;25.20;9.60;;;;;;;14.08;88.31;102372.53;5012154;28;20097;-69
2021/07/20 01:57:41;;;;;;;22.05;9.13;;;;;;;14.06;88.44;102372.56;5009546;28;21026;-69
2021/07/20 02:00:15;;;;;;;23.08;8.10;;;;;;;14.05;87.98;102375.31;5017502;28;20065;-69
2021/07/20 02:02:58;;;;;;;24.92;9.38;;;;;;;14.03;88.59;102378.03;5010871;28;20053;-69
2021/07/20 02:08:27;;;;;;;26.08;9.10;;;;;;;14.01;88.04;102377.16;5006162;28;20135;-69
2021/07/20 02:11:02;;;;;;;21.38;9.23;;;;;;;14.00;87.67;102380.78;5012021;28;20072;-69
2021/07/20 02:13:39;;;;;;;24.75;9.35;;;;;;;13.97;87.54;102381.72;5013084;28;20465;-69
2021/07/20 02:16:10;;;;;;;21.95;10.27;;;;;;;13.97;87.46;102378.16;5009080;28;20062;-69
2021/07/20 02:18:41;;;;;;;22.17;9.35;;;;;;;13.94;87.31;102370.16;5014233;28;20068;-69
2021/07/20 02:21:09;;;;;;;25.42;9.18;;;;;;;13.97;86.85;102383.53;5014760;28;20084;-69
2021/07/20 02:23:38;;;;;;;22.92;9.30;;;;;;;13.92;86.98;102377.38;5014719;28;20057;-69
2021/07/20 02:26:08;;;;;;;24.02;8.75;;;;;;;13.88;86.87;102370.31;5012117;28;20049;-69
2021/07/20 02:28:37;;;;;;;28.75;8.82;;;;;;;13.85;87.24;102375.75;5008755;28;20066;-69
2021/07/20 02:31:06;;;;;;;27.40;9.90;;;;;;;13.82;87.09;102392.78;5012390;28;20069;-70
2021/07/20 02:33:36;;;;;;;23.83;10.70;;;;;;;13.83;87.27;102375.78;5010560;28;20368;-69
2021/07/20 02:36:05;;;;;;;27.35;9.57;;;;;;;13.78;87.23;102389.28;5010923;28;20131;-69
2021/07/20 02:38:37;;;;;;;20.95;9.00;;;;;;;13.77;87.43;102387.53;5013593;28;20149;-69
2021/07/20 02:41:06;;;;;;;25.92;9.65;;;;;;;13.77;87.57;102379.47;5008835;28;20085;-69
2021/07/20 02:43:37;;;;;;;24.73;10.07;;;;;;;13.76;87.37;102375.00;5012230;28;20754;-69
2021/07/20 02:46:06;;;;;;;24.00;8.77;;;;;;;13.76;87.42;102384.88;5008994;28;20175;-69
2021/07/20 02:48:35;;;;;;;26.05;8.95;;;;;;;13.74;87.74;102382.22;5009030;28;20062;-69
2021/07/20 02:51:03;;;;;;;28.05;9.90;;;;;;;13.75;87.49;102378.59;5012292;28;20069;-69
2021/07/20 02:53:33;;;;;;;26.10;9.85;;;;;;;13.74;87.20;102374.16;5008956;28;20120;-69
2021/07/20 02:56:01;;;;;;;22.02;9.57;;;;;;;13.75;86.92;102385.78;5012650;28;20828;-69
2021/07/20 02:58:29;;;;;;;24.05;10.45;;;;;;;13.70;87.20;102393.91;5005899;28;20133;-70
2021/07/20 03:00:59;;;;;;;30.33;11.25;;;;;;;13.68;87.80;102386.81;5013885;28;20061;-70
2021/07/20 03:03:27;;;;;;;23.67;10.18;;;;;;;13.64;87.18;102386.88;5009987;28;20097;-69
2021/07/20 03:05:57;;;;;;;23.70;9.68;;;;;;;13.63;87.40;102378.88;5009722;28;20152;-69
2021/07/20 03:08:27;;;;;;;30.23;10.13;;;;;;;13.57;87.43;102382.56;5010322;28;20049;-74
2021/07/20 03:10:57;;;;;;;25.02;9.50;;;;;;;13.55;87.35;102373.66;5011785;28;20107;-76
2021/07/20 03:13:27;;;;;;;26.27;10.48;;;;;;;13.56;87.69;102374.53;5010362;28;20061;-75
2021/07/20 03:15:58;;;;;;;27.75;10.82;;;;;;;13.55;87.92;102378.13;5012308;28;20118;-75
2021/07/20 03:18:30;;;;;;;28.30;10.52;;;;;;;13.54;87.59;102379.06;5011508;28;20068;-75
2021/07/20 03:20:59;;;;;;;28.33;10.77;;;;;;;13.52;87.48;102380.88;5012483;28;20097;-75
2021/07/20 03:23:28;;;;;;;33.20;10.77;;;;;;;13.54;87.52;102381.75;5008419;28;20062;-75
2021/07/20 03:25:57;;;;;;;25.67;9.68;;;;;;;13.53;87.80;102385.31;5012981;28;20065;-75
2021/07/20 03:28:25;;;;;;;28.30;10.02;;;;;;;13.52;87.66;102380.88;5013222;28;20348;-75
2021/07/20 03:30:55;;;;;;;24.05;9.65;;;;;;;13.52;87.55;102380.88;5009497;28;20439;-75
2021/07/20 03:33:25;;;;;;;27.13;10.40;;;;;;;13.53;87.40;102385.31;5010964;28;20062;-76
2021/07/20 03:35:54;;;;;;;29.67;10.15;;;;;;;13.51;87.56;102377.31;5009038;28;20061;-76
2021/07/20 03:38:23;;;;;;;27.23;9.80;;;;;;;13.49;87.48;102386.31;5008662;28;20232;-76
2021/07/20 03:40:53;;;;;;;21.75;9.18;;;;;;;13.50;87.48;102385.38;5012619;28;20306;-75
2021/07/20 03:43:24;;;;;;;31.35;11.25;;;;;;;13.45;87.81;102381.00;5012063;28;20050;-76
2021/07/20 03:45:52;;;;;;;28.65;9.85;;;;;;;13.42;87.52;102373.03;5013566;28;20093;-75
2021/07/20 03:48:21;;;;;;;31.40;11.10;;;;;;;13.40;87.52;102376.63;5009785;28;20076;-76
2021/07/20 03:50:54;;;;;;;27.88;10.63;;;;;;;13.41;88.13;102376.59;5009886;28;20289;-76
2021/07/20 03:53:22;;;;;;;29.45;10.88;;;;;;;13.38;87.80;102375.78;5010898;28;20085;-76
2021/07/20 03:55:53;;;;;;;31.15;10.40;;;;;;;13.38;88.30;102381.13;5013525;28;20614;-76
2021/07/20 03:58:22;;;;;;;29.15;10.85;;;;;;;13.37;88.01;102376.72;5013460;28;20066;-76
2021/07/20 04:00:51;;;;;;;35.45;11.80;;;;;;;13.40;88.12;102379.31;5011959;28;20069;-76
2021/07/20 04:03:24;;;;;;;27.00;9.90;;;;;;;13.39;87.78;102381.13;5012761;28;20095;-76
2021/07/20 04:05:56;;;;;;;25.87;9.87;;;;;;;13.39;87.61;102383.78;5008621;28;20061;-76
2021/07/20 04:08:26;;;;;;;31.58;10.63;;;;;;;13.42;87.89;102388.22;5011778;28;20116;-76
2021/07/20 04:10:55;;;;;;;29.25;10.30;;;;;;;13.43;87.27;102385.53;5013663;28;20066;-76
2021/07/20 04:13:23;;;;;;;26.95;10.32;;;;;;;13.45;87.13;102382.81;5015178;28;20057;-76
2021/07/20 04:15:54;;;;;;;28.75;10.50;;;;;;;13.44;86.75;102383.72;5014104;28;20397;-76
2021/07/20 04:18:22;;;;;;;26.02;10.80;;;;;;;13.48;86.63;102379.19;5011288;28;20066;-76
2021/07/20 04:20:50;;;;;;;29.70;10.73;;;;;;;13.50;86.89;102388.06;5013723;28;20093;-75
2021/07/20 04:23:21;;;;;;;28.00;11.02;;;;;;;13.49;86.79;102389.88;5010663;28;20042;-76
2021/07/20 04:25:51;;;;;;;28.85;11.00;;;;;;;13.51;86.37;102388.03;5013510;28;20409;-75
2021/07/20 04:28:23;;;;;;;27.63;10.02;;;;;;;13.50;86.42;102383.59;5016742;28;20057;-76
2021/07/20 04:30:51;;;;;;;31.33;11.35;;;;;;;13.50;86.00;102383.59;5010871;28;20385;-76
2021/07/20 04:33:25;;;;;;;30.55;10.68;;;;;;;13.54;85.94;102390.66;5015708;28;20735;-76
2021/07/20 04:35:53;;;;;;;25.30;10.70;;;;;;;13.59;86.02;102385.22;5010971;28;20061;-75
2021/07/20 04:38:25;;;;;;;25.60;10.18;;;;;;;13.61;85.86;102391.44;5013509;28;20468;-75
2021/07/20 04:40:53;;;;;;;28.98;11.02;;;;;;;13.63;85.55;102390.47;5010211;28;20072;-76
2021/07/20 04:43:21;;;;;;;29.17;10.80;;;;;;;13.69;85.90;102385.88;5011787;28;20053;-76
2021/07/20 04:45:52;;;;;;;30.20;10.55;;;;;;;13.67;85.46;102387.72;5016213;28;20093;-75
2021/07/20 04:48:21;;;;;;;30.98;9.75;;;;;;;13.74;85.33;102392.94;5014404;28;20054;-75
2021/07/20 04:50:51;;;;;;;26.15;10.57;;;;;;;13.79;85.15;102391.06;5010929;28;20057;-74
2021/07/20 04:53:19;;;;;;;29.65;10.27;;;;;;;13.89;84.91;102391.72;5012174;28;20578;-75
2021/07/20 04:55:50;;;;;;;31.45;10.80;;;;;;;13.99;83.95;102390.59;5013514;28;20066;-75
2021/07/20 04:58:19;;;;;;;26.25;10.00;;;;;;;14.02;83.47;102387.00;5015460;28;20104;-75
2021/07/20 05:00:50;;;;;;;22.95;9.95;;;;;;;14.13;83.79;102393.00;5011690;28;20065;-76
2021/07/20 05:03:19;;;;;;;27.25;11.20;;;;;;;14.29;82.65;102398.03;5014517;28;20479;-75
2021/07/20 05:05:49;;;;;;;31.25;10.55;;;;;;;14.41;82.92;102400.44;5016662;28;20069;-75
2021/07/20 05:08:19;;;;;;;29.85;9.75;;;;;;;14.48;82.04;102393.97;5011921;28;20348;-75
2021/07/20 05:10:50;;;;;;;31.35;10.05;;;;;;;14.61;81.54;102393.72;5014425;28;20093;-75
2021/07/20 05:13:20;;;;;;;30.85;10.85;;;;;;;14.75;81.05;102400.53;5012375;28;20066;-75
2021/07/20 05:15:51;;;;;;;25.77;9.88;;;;;;;14.91;80.53;102392.97;5014618;28;20053;-76
2021/07/20 05:18:20;;;;;;;24.15;10.15;;;;;;;14.99;79.66;102403.50;5014021;28;20081;-76
2021/07/20 05:20:50;;;;;;;28.65;11.07;;;;;;;15.13;79.11;102400.47;5010998;28;20380;-75
2021/07/20 05:23:20;;;;;;;31.63;11.98;;;;;;;15.26;79.25;102396.53;5011547;28;20068;-76
2021/07/20 05:25:52;;;;;;;24.27;9.52;;;;;;;15.44;78.81;102389.78;5014652;28;20073;-76
2021/07/20 05:28:21;;;;;;;26.35;10.27;;;;;;;15.58;77.66;102393.84;5014108;28;20089;-76
2021/07/20 05:30:51;;;;;;;24.40;9.55;;;;;;;15.71;77.47;102376.44;5010490;28;20100;-76
2021/07/20 05:33:20;;;;;;;27.27;9.88;;;;;;;15.77;76.01;102387.06;5012881;28;20061;-76
2021/07/20 05:35:50;;;;;;;20.38;9.00;;;;;;;15.85;74.82;102385.03;5013729;28;20145;-76
2021/07/20 05:38:18;;;;;;;25.20;8.90;;;;;;;15.99;74.56;102390.00;5015441;28;20315;-76
2021/07/20 05:40:47;;;;;;;21.73;8.90;;;;;;;16.09;73.50;102396.00;5010822;28;20313;-76
2021/07/20 05:43:18;;;;;;;22.63;8.35;;;;;;;16.23;72.45;102385.66;5013871;28;20066;-76
2021/07/20 05:45:47;;;;;;;22.67;8.90;;;;;;;16.37;73.05;102385.22;5012622;28;20053;-76
2021/07/20 05:48:17;;;;;;;22.27;8.57;;;;;;;16.36;71.49;102385.28;5011505;28;20153;-76
2021/07/20 05:50:50;;;;;;;22.77;9.13;;;;;;;16.61;70.00;102388.06;5010495;28;20065;-75
2021/07/20 05:53:20;;;;;;;20.42;7.47;;;;;;;16.64;68.97;102385.28;5007908;28;20066;-76
2021/07/20 05:55:51;;;;;;;18.85;7.28;;;;;;;16.77;68.32;102389.31;5010624;28;20384;-76
2021/07/20 05:58:21;;;;;;;20.35;8.50;;;;;;;16.78;68.61;102392.88;5015265;28;20065;-76
2021/07/20 06:00:52;;;;;;;18.23;7.78;;;;;;;16.99;68.17;102386.81;5012723;28;20068;-76
2021/07/20 06:03:22;;;;;;;20.17;7.93;;;;;;;17.11;66.65;102393.59;5009453;28;20058;-76
2021/07/20 06:05:53;;;;;;;19.80;7.68;;;;;;;17.24;66.67;102385.94;5014925;28;20066;-75
2021/07/20 06:08:23;;;;;;;22.45;8.48;;;;;;;17.31;65.85;102389.28;5014152;28;20582;-76
2021/07/20 06:10:55;;;;;;;21.17;7.93;;;;;;;17.60;66.63;102387.34;5008245;28;20061;-75
2021/07/20 06:13:25;;;;;;;20.48;8.35;;;;;;;17.90;65.60;102391.63;5010229;28;20066;-78
2021/07/20 06:15:55;;;;;;;21.40;7.97;;;;;;;17.85;64.71;102385.50;5009448;28;20072;-75
2021/07/20 06:18:23;;;;;;;17.83;8.07;;;;;;;18.00;64.13;102391.28;5012629;28;20053;-77
2021/07/20 06:20:56;;;;;;;21.75;7.95;;;;;;;18.19;63.59;102388.75;5009411;28;20464;-77
2021/07/20 06:23:25;;;;;;;16.45;6.68;;;;;;;18.33;62.25;102396.28;5013313;28;20160;-77
2021/07/20 06:25:54;;;;;;;16.90;7.07;;;;;;;18.35;61.48;102397.97;5012176;28;20401;-78
2021/07/20 06:28:24;;;;;;;17.98;7.32;;;;;;;18.29;60.87;102399.09;5011456;28;20065;-77
2021/07/20 06:30:53;;;;;;;19.02;7.75;;;;;;;18.49;60.26;102392.03;5009202;28;20423;-76
2021/07/20 06:33:22;;;;;;;23.73;7.88;;;;;;;18.53;59.71;102399.06;5009818;28;20069;-76
2021/07/20 06:35:50;;;;;;;17.63;7.03;;;;;;;18.63;59.75;102397.75;5013469;28;20485;-76
2021/07/20 06:38:19;;;;;;;20.00;7.85;;;;;;;18.77;59.51;102401.69;5013426;28;20073;-76
2021/07/20 06:40:49;;;;;;;16.52;7.03;;;;;;;19.00;58.96;102404.34;5008275;28;20374;-76
2021/07/20 06:43:18;;;;;;;16.27;7.07;;;;;;;19.19;58.27;102401.72;5017882;28;20061;-76
2021/07/20 06:45:48;;;;;;;19.10;7.43;;;;;;;19.09;57.90;102410.31;5011068;28;20066;-75
2021/07/20 06:48:19;;;;;;;18.70;8.07;;;;;;;19.40;56.98;102399.00;5010952;28;20057;-76
2021/07/20 06:50:48;;;;;;;16.98;7.50;;;;;;;19.33;56.75;102411.06;5010794;28;20076;-75
2021/07/20 06:53:16;;;;;;;19.52;7.28;;;;;;;19.27;56.36;102406.78;5010200;28;20404;-76
2021/07/20 06:55:47;;;;;;;16.15;6.68;;;;;;;19.62;56.25;102390.78;5009432;28;20058;-76
2021/07/20 06:58:17;;;;;;;17.17;7.18;;;;;;;19.96;56.24;102400.09;5013529;28;20507;-76
2021/07/20 07:00:50;;;;;;;16.30;7.35;;;;;;;19.87;54.99;102396.00;5012573;28;20445;-76
2021/07/20 07:03:22;;;;;;;18.02;7.57;;;;;;;19.93;53.83;102403.81;5012104;28;20065;-76
2021/07/20 07:05:51;;;;;;;16.45;7.50;;;;;;;20.19;54.35;102409.81;5010590;28;20318;-75
2021/07/20 07:08:19;;;;;;;17.08;7.85;;;;;;;20.00;54.42;102411.66;5010262;28;20078;-75
2021/07/20 07:10:47;;;;;;;19.33;8.18;;;;;;;20.11;53.82;102415.63;5014770;28;20116;-76
2021/07/20 07:13:17;;;;;;;16.52;7.63;;;;;;;20.39;52.71;102413.41;5016058;28;20067;-75
2021/07/20 07:15:46;;;;;;;16.38;7.90;;;;;;;20.03;53.48;102406.97;5014678;28;20057;-75
2021/07/20 07:18:16;;;;;;;17.60;7.72;;;;;;;20.33;53.07;102406.47;5013124;28;20065;-76
2021/07/20 07:20:47;;;;;;;17.05;7.68;;;;;;;20.42;53.23;102408.72;5012606;28;20499;-76
2021/07/20 07:23:16;;;;;;;16.40;7.72;;;;;;;20.82;53.33;102414.94;5012390;28;20290;-75
2021/07/20 07:25:48;;;;;;;18.58;7.70;;;;;;;20.39;53.05;102417.00;5011175;28;20065;-76
2021/07/20 07:28:17;;;;;;;16.10;7.85;;;;;;;20.77;52.20;102408.84;5013331;28;20061;-76
2021/07/20 07:30:48;;;;;;;18.45;8.25;;;;;;;21.02;52.62;102413.00;5011637;28;20086;-76
2021/07/20 07:33:17;;;;;;;18.05;7.63;;;;;;;21.09;51.44;102411.72;5015628;28;20363;-75
2021/07/20 07:35:45;;;;;;;17.50;7.35;;;;;;;20.93;51.58;102427.06;5008930;28;20073;-76
2021/07/20 07:38:14;;;;;;;22.23;8.30;;;;;;;21.11;51.63;102412.53;5012621;28;20061;-75
2021/07/20 07:40:46;;;;;;;14.35;7.13;;;;;;;21.22;51.38;102414.69;5013686;28;20072;-76
2021/07/20 07:43:14;;;;;;;17.45;7.32;;;;;;;21.10;50.75;102410.78;5010485;28;20045;-76
2021/07/20 07:45:43;;;;;;;15.48;7.70;;;;;;;21.36;50.62;102412.13;5011764;28;20066;-70
2021/07/20 07:48:13;;;;;;;15.23;6.72;;;;;;;21.00;51.39;102413.09;5012047;28;20062;-70
2021/07/20 07:50:43;;;;;;;14.98;6.78;;;;;;;21.24;50.52;102415.50;5017406;28;20062;-70
2021/07/20 07:53:12;;;;;;;16.45;7.15;;;;;;;21.43;50.43;102412.69;5016358;28;20104;-70
2021/07/20 07:55:40;;;;;;;17.38;8.00;;;;;;;21.17;50.78;102409.50;5017488;28;20081;-70
2021/07/20 07:58:08;;;;;;;15.68;7.18;;;;;;;21.37;50.22;102416.59;5016200;28;20452;-70
2021/07/20 08:00:39;;;;;;;19.20;7.57;;;;;;;21.73;49.80;102412.91;5010207;28;20084;-70
2021/07/20 08:03:09;;;;;;;17.40;7.05;;;;;;;21.76;49.19;102415.47;5014215;28;20053;-70
2021/07/20 08:05:38;;;;;;;16.00;7.05;;;;;;;22.22;48.13;102420.19;5014166;28;20104;-75
2021/07/20 08:08:12;;;;;;;15.77;6.68;;;;;;;21.63;48.56;102415.22;5014287;28;20580;-74
2021/07/20 08:10:43;;;;;;;15.15;6.93;;;;;;;22.02;47.62;102421.28;5011539;28;20050;-75
2021/07/20 08:13:12;;;;;;;16.95;7.97;;;;;;;22.36;47.26;102414.00;5014278;28;21332;-75
2021/07/20 08:15:40;;;;;;;15.50;7.38;;;;;;;22.44;47.64;102417.16;5014527;28;20061;-75
2021/07/20 08:18:08;;;;;;;17.17;6.80;;;;;;;22.22;47.27;102422.00;5013237;28;20066;-76
2021/07/20 08:20:37;;;;;;;16.02;7.15;;;;;;;22.34;47.49;102416.78;5014780;28;20049;-75
2021/07/20 08:23:06;;;;;;;15.93;7.70;;;;;;;22.10;47.56;102423.56;5013778;28;20120;-76
2021/07/20 08:25:40;;;;;;;17.08;7.90;;;;;;;22.13;47.51;102426.13;5010097;28;20065;-76
2021/07/20 08:28:09;;;;;;;16.80;7.90;;;;;;;22.52;46.88;102419.41;5015902;28;20065;-76
2021/07/20 08:30:41;;;;;;;14.48;7.32;;;;;;;22.97;45.74;102416.78;5014680;28;20065;-72
2021/07/20 08:33:12;;;;;;;14.57;7.75;;;;;;;22.99;45.49;102415.75;5014090;28;20065;-73
2021/07/20 08:35:42;;;;;;;18.30;7.75;;;;;;;22.47;46.81;102410.66;5014994;28;20544;-76
2021/07/20 08:38:13;;;;;;;16.25;7.88;;;;;;;22.93;46.66;102413.38;5015508;28;20066;-76
2021/07/20 08:41:01;;;;;;;15.02;7.00;;;;;;;23.12;45.49;102413.19;5015798;28;20177;-75
2021/07/20 08:43:39;;;;;;;14.00;7.15;;;;;;;23.30;44.67;102414.78;5011679;28;20046;-75
2021/07/20 08:46:20;;;;;;;15.18;7.25;;;;;;;23.10;45.63;102412.41;5014498;28;20065;-75
2021/07/20 08:48:57;;;;;;;16.33;7.60;;;;;;;23.44;45.63;102411.19;5013544;28;20073;-75
2021/07/20 08:51:32;;;;;;;14.93;7.43;;;;;;;23.31;44.66;102407.50;5018406;28;20092;-71
2021/07/20 08:54:07;;;;;;;15.82;6.72;;;;;;;23.76;44.13;102400.16;5016040;28;20108;-71
2021/07/20 08:56:40;;;;;;;16.35;7.28;;;;;;;23.09;45.23;102406.09;5010309;28;20102;-75
2021/07/20 08:59:14;;;;;;;15.32;7.95;;;;;;;23.68;44.01;102405.19;5014229;28;20658;-76
2021/07/20 09:01:56;;;;;;;18.80;7.35;;;;;;;23.97;43.15;102403.41;5017047;28;20119;-74
2021/07/20 09:04:31;;;;;;;15.27;7.32;;;;;;;23.67;43.44;102403.47;5014559;28;20069;-75
2021/07/20 09:07:03;;;;;;;17.15;7.70;;;;;;;24.00;43.74;102402.31;5011333;28;20084;-74
2021/07/20 09:09:36;;;;;;;16.25;7.35;;;;;;;23.90;42.95;102404.75;5016343;28;20519;-74
2021/07/20 09:12:11;;;;;;;19.05;8.35;;;;;;;24.22;43.10;102408.13;5014138;28;20046;-74
2021/07/20 09:14:44;;;;;;;16.50;7.43;;;;;;;23.98;43.10;102407.00;5010709;28;20092;-74
2021/07/20 09:17:17;;;;;;;18.48;8.80;;;;;;;23.82;43.85;102410.69;5012433;28;20191;-74
2021/07/20 09:19:51;;;;;;;16.67;8.27;;;;;;;23.89;43.28;102416.63;5011611;28;20104;-74
2021/07/20 09:22:22;;;;;;;18.27;8.10;;;;;;;23.95;43.64;102410.78;5007995;28;20057;-75
2021/07/20 09:24:56;;;;;;;17.10;7.28;;;;;;;24.28;42.98;102420.50;5014687;28;20064;-76
2021/07/20 09:27:31;;;;;;;17.10;8.35;;;;;;;23.82;42.58;102415.25;5010771;28;20336;-76
2021/07/20 09:30:13;;;;;;;15.65;8.13;;;;;;;23.66;44.06;102421.63;5013264;28;20038;-76
2021/07/20 09:32:50;;;;;;;17.27;7.60;;;;;;;23.97;43.71;102424.31;5009003;28;20069;-76
2021/07/20 09:35:26;;;;;;;14.85;7.85;;;;;;;24.40;43.17;102425.13;5012692;28;20115;-76
2021/07/20 09:38:05;;;;;;;18.48;8.38;;;;;;;23.89;43.51;102413.91;5010202;28;20104;-76
2021/07/20 09:40:44;;;;;;;16.10;7.93;;;;;;;24.13;43.09;102416.91;5012887;28;20065;-75
2021/07/20 09:43:27;;;;;;;17.05;8.35;;;;;;;24.33;42.27;102414.72;5012830;28;20100;-77
2021/07/20 09:46:02;;;;;;;18.55;8.40;;;;;;;23.42;43.77;102425.91;5012377;28;20165;-76
2021/07/20 09:48:38;;;;;;;17.38;8.15;;;;;;;23.97;43.30;102407.94;5013466;28;20101;-76
2021/07/20 09:51:17;;;;;;;18.13;8.85;;;;;;;24.45;42.29;102403.00;5013599;28;20480;-76
2021/07/20 09:54:00;;;;;;;17.92;8.18;;;;;;;24.57;41.90;102409.53;5016060;28;20065;-76
2021/07/20 09:56:38;;;;;;;17.83;8.52;;;;;;;24.33;43.00;102410.16;5016329;28;20068;-76
2021/07/20 09:59:37;;;;;;;13.55;7.60;;;;;;;24.85;41.93;102414.00;5011017;28;20159;-77
2021/07/20 10:02:11;;;;;;;17.40;8.52;;;;;;;25.07;41.02;102402.47;5012361;28;20175;-76
2021/07/20 10:04:51;;;;;;;18.48;9.35;;;;;;;25.20;41.14;102405.25;5012364;28;20068;-76
2021/07/20 10:07:28;;;;;;;19.23;8.93;;;;;;;24.69;41.13;102408.72;5013526;28;20116;-76
2021/07/20 10:10:04;;;;;;;17.77;8.35;;;;;;;25.08;41.75;102406.97;5010778;28;20061;-77
2021/07/20 10:12:42;;;;;;;18.08;8.55;;;;;;;25.04;40.26;102412.72;5014116;28;20065;-76
2021/07/20 10:15:16;;;;;;;16.55;8.20;;;;;;;25.02;41.28;102409.25;5009958;28;20389;-76
2021/07/20 10:17:50;;;;;;;17.65;8.18;;;;;;;25.42;40.72;102406.47;5012055;28;20089;-75
2021/07/20 10:20:20;;;;;;;18.20;8.32;;;;;;;25.54;40.51;102397.44;5012846;28;20066;-76
2021/07/20 10:22:57;;;;;;;17.00;9.45;;;;;;;25.34;40.64;102402.44;5011019;28;20065;-78
2021/07/20 10:25:30;;;;;;;18.38;8.63;;;;;;;25.34;40.29;102402.44;5012790;28;20123;-78
2021/07/20 10:28:05;;;;;;;20.27;8.85;;;;;;;25.33;41.01;102400.66;5017424;28;20516;-76
2021/07/20 10:30:38;;;;;;;19.60;8.82;;;;;;;24.93;40.27;102400.69;5017199;28;20474;-76
2021/07/20 10:33:12;;;;;;;21.45;9.88;;;;;;;24.50;42.33;102391.78;5011306;28;20167;-76
2021/07/20 10:35:44;;;;;;;18.20;8.52;;;;;;;24.82;41.64;102391.50;5014998;28;20069;-78
2021/07/20 10:38:17;;;;;;;18.35;8.82;;;;;;;24.70;41.82;102395.94;5013337;28;20137;-77
2021/07/20 10:40:48;;;;;;;14.93;8.30;;;;;;;24.59;41.71;102389.34;5011591;28;20061;-78
2021/07/20 10:43:22;;;;;;;15.00;8.05;;;;;;;25.17;41.03;102386.34;5013742;28;20069;-76
2021/07/20 10:45:53;;;;;;;17.83;8.27;;;;;;;25.03;40.96;102383.66;5010556;28;20333;-76
2021/07/20 10:48:24;;;;;;;17.13;8.82;;;;;;;24.86;41.60;102391.19;5014589;28;20073;-76
2021/07/20 10:50:54;;;;;;;17.63;8.55;;;;;;;25.26;40.97;102382.09;5012045;28;20544;-70
2021/07/20 10:53:41;;;;;;;18.08;7.95;;;;;;;25.56;40.56;102379.06;5008972;28;20061;-70
2021/07/20 10:56:18;;;;;;;18.60;9.02;;;;;;;25.30;40.00;102379.06;5010902;28;20168;-70
2021/07/20 10:58:54;;;;;;;17.48;8.35;;;;;;;25.37;40.17;102376.78;5014284;28;20088;-72
2021/07/20 11:01:27;;;;;;;17.23;8.63;;;;;;;25.60;39.51;102383.31;5012724;28;20045;-70
2021/07/20 11:04:07;;;;;;;15.57;7.80;;;;;;;25.66;39.91;102374.69;5012006;28;20061;-70
2021/07/20 11:06:38;;;;;;;16.98;7.88;;;;;;;24.60;41.13;102390.22;5010756;28;20072;-70
2021/07/20 11:09:14;;;;;;;17.17;8.05;;;;;;;25.59;40.34;102375.22;5011415;28;20157;-72
2021/07/20 11:11:45;;;;;;;16.08;7.45;;;;;;;24.87;41.10;102371.06;5012241;28;20076;-71
2021/07/20 11:14:13;;;;;;;15.95;7.45;;;;;;;24.68;42.26;102376.06;5011300;28;20739;-71
2021/07/20 11:16:44;;;;;;;16.52;7.55;;;;;;;24.76;41.66;102380.00;5010934;28;20079;-71
2021/07/20 11:19:13;;;;;;;16.75;8.23;;;;;;;25.30;40.20;102378.16;5010347;28;20159;-71
2021/07/20 11:21:43;;;;;;;16.08;8.45;;;;;;;25.64;40.24;102367.56;5014613;28;20457;-77
2021/07/20 11:24:15;;;;;;;17.40;8.07;;;;;;;26.23;39.52;102370.53;5012549;28;20057;-77
2021/07/20 11:26:43;;;;;;;16.55;7.35;;;;;;;26.40;39.32;102376.59;5013130;28;20156;-77
2021/07/20 11:29:12;;;;;;;16.10;8.10;;;;;;;25.97;39.84;102364.28;5011669;28;20065;-77
2021/07/20 11:31:46;;;;;;;17.05;7.78;;;;;;;26.22;38.43;102356.97;5009484;28;20065;-77
2021/07/20 11:34:19;;;;;;;15.07;8.00;;;;;;;26.16;39.52;102358.31;5012967;28;20148;-77
2021/07/20 11:36:48;;;;;;;17.33;8.02;;;;;;;25.09;40.39;102356.81;5010039;28;20049;-77